createdAt,value
2023-12-05T00:02:19.177Z,16.00
2023-12-05T00:04:48.758Z,15.70
2023-12-05T00:07:16.446Z,15.00
2023-12-05T00:09:44.062Z,18.23
2023-12-05T00:12:11.619Z,18.15
2023-12-05T00:14:39.250Z,15.85
2023-12-05T00:17:06.818Z,15.52
2023-12-05T00:19:34.630Z,16.23
2023-12-05T00:22:03.589Z,16.30
2023-12-05T00:24:31.152Z,17.63
2023-12-05T00:26:58.833Z,18.05
2023-12-05T00:29:26.424Z,20.17
2023-12-05T00:31:54.257Z,20.77
2023-12-05T00:34:22.094Z,17.77
2023-12-05T00:36:50.181Z,19.65
2023-12-05T00:39:19.170Z,21.42
2023-12-05T00:41:47.977Z,21.38
2023-12-05T00:44:15.533Z,23.95
2023-12-05T00:46:43.108Z,20.55
2023-12-05T00:49:10.855Z,23.75
2023-12-05T00:51:38.613Z,22.45
2023-12-05T00:54:06.248Z,23.23
2023-12-05T00:56:35.159Z,24.88
2023-12-05T00:59:02.701Z,24.20
2023-12-05T01:01:30.444Z,22.77
2023-12-05T01:03:58.616Z,26.08
2023-12-05T01:06:26.419Z,23.90
2023-12-05T01:08:54.072Z,23.13
2023-12-05T01:11:21.857Z,26.35
2023-12-05T01:13:50.793Z,24.92
2023-12-05T01:16:18.367Z,23.10
2023-12-05T01:18:46.025Z,24.40
2023-12-05T01:21:13.658Z,25.02
2023-12-05T01:23:42.328Z,24.95
2023-12-05T01:26:09.877Z,23.67
2023-12-05T01:28:37.438Z,24.02
2023-12-05T01:31:06.748Z,26.67
2023-12-05T01:33:34.349Z,22.30
2023-12-05T01:36:01.889Z,19.98
2023-12-05T01:38:29.494Z,20.58
2023-12-05T01:40:57.036Z,22.05
2023-12-05T01:43:24.943Z,20.65
2023-12-05T01:45:53.354Z,25.13
2023-12-05T01:48:22.700Z,26.27
2023-12-05T01:50:50.799Z,24.23
2023-12-05T01:53:18.860Z,21.25
2023-12-05T01:55:46.720Z,20.40
2023-12-05T01:58:15.577Z,22.33
2023-12-05T02:00:43.537Z,21.45
2023-12-05T02:03:12.147Z,24.02
2023-12-05T02:05:41.232Z,23.25
2023-12-05T02:08:12.653Z,21.95
2023-12-05T02:10:40.683Z,22.00
2023-12-05T02:13:08.286Z,21.08
2023-12-05T02:15:35.939Z,21.60
2023-12-05T02:18:12.428Z,22.30
2023-12-05T02:20:48.696Z,21.10
2023-12-05T02:23:43.478Z,20.20
2023-12-05T02:26:21.078Z,24.73
2023-12-05T02:28:50.646Z,20.27
2023-12-05T02:31:18.741Z,21.67
2023-12-05T02:33:48.390Z,21.67
2023-12-05T02:36:38.030Z,21.13
2023-12-05T02:39:13.433Z,18.42
2023-12-05T02:41:46.469Z,22.33
2023-12-05T02:44:17.485Z,18.48
2023-12-05T02:46:46.560Z,19.17
2023-12-05T02:49:14.523Z,20.52
2023-12-05T02:51:42.829Z,19.95
2023-12-05T02:54:10.425Z,20.83
2023-12-05T02:56:38.121Z,18.48
2023-12-05T02:59:06.130Z,20.58
2023-12-05T03:01:40.593Z,20.83
2023-12-05T03:04:08.448Z,16.90
2023-12-05T03:06:36.261Z,17.63
2023-12-05T03:09:04.855Z,20.02
2023-12-05T03:11:32.864Z,19.23
2023-12-05T03:14:00.822Z,18.92
2023-12-05T03:16:28.499Z,18.45
2023-12-05T03:18:57.579Z,22.50
2023-12-05T03:21:25.648Z,21.27
2023-12-05T03:23:53.251Z,23.10
2023-12-05T03:26:21.255Z,19.80
2023-12-05T03:28:50.023Z,19.00
2023-12-05T03:31:17.655Z,21.20
2023-12-05T03:33:45.748Z,23.73
2023-12-05T03:36:15.342Z,26.05
2023-12-05T03:38:42.912Z,21.17
2023-12-05T03:41:10.896Z,20.60
2023-12-05T03:43:38.500Z,21.75
2023-12-05T03:46:06.585Z,19.52
2023-12-05T03:48:34.326Z,21.48
2023-12-05T03:51:02.091Z,22.15
2023-12-05T03:53:31.144Z,20.40
2023-12-05T03:55:58.677Z,21.85
2023-12-05T03:58:26.369Z,21.55
2023-12-05T04:00:53.981Z,23.45
2023-12-05T04:03:21.838Z,21.67
2023-12-05T04:05:49.537Z,23.10
2023-12-05T04:08:17.100Z,22.60
2023-12-05T04:10:45.935Z,23.08
2023-12-05T04:13:13.490Z,24.05
2023-12-05T04:15:41.700Z,22.85
2023-12-05T04:18:09.302Z,20.30
2023-12-05T04:20:36.959Z,25.38
2023-12-05T04:23:04.547Z,23.30
2023-12-05T04:25:32.188Z,23.08
2023-12-05T04:28:01.060Z,20.48
2023-12-05T04:30:28.646Z,28.35
2023-12-05T04:32:56.258Z,25.38
2023-12-05T04:35:23.799Z,23.48
2023-12-05T04:37:51.318Z,30.25
2023-12-05T04:40:20.186Z,22.08
2023-12-05T04:42:48.081Z,22.55
2023-12-05T04:45:17.361Z,24.00
2023-12-05T04:47:45.878Z,28.25
2023-12-05T04:50:13.518Z,23.23
2023-12-05T04:52:41.065Z,24.17
2023-12-05T04:55:09.332Z,23.90
2023-12-05T04:57:36.961Z,23.80
2023-12-05T05:00:07.129Z,24.10
2023-12-05T05:02:36.059Z,24.88
2023-12-05T05:05:03.888Z,23.83
2023-12-05T05:07:31.633Z,31.05
2023-12-05T05:09:59.253Z,23.48
2023-12-05T05:12:27.237Z,22.92
2023-12-05T05:14:54.821Z,22.85
2023-12-05T05:17:22.443Z,21.35
2023-12-05T05:19:51.371Z,24.45
2023-12-05T05:22:18.919Z,25.02
2023-12-05T05:24:46.499Z,23.20
2023-12-05T05:27:14.305Z,23.50
2023-12-05T05:29:41.902Z,23.23
2023-12-05T05:32:09.522Z,20.60
2023-12-05T05:34:37.125Z,28.13
2023-12-05T05:37:06.165Z,24.58
2023-12-05T05:39:34.426Z,20.48
2023-12-05T05:42:01.969Z,17.88
2023-12-05T05:44:29.815Z,20.85
2023-12-05T05:46:57.374Z,21.55
2023-12-05T05:49:25.311Z,25.35
2023-12-05T05:51:52.939Z,22.58
2023-12-05T05:54:23.078Z,24.73
2023-12-05T05:56:50.623Z,25.05
2023-12-05T05:59:18.349Z,23.70
2023-12-05T06:01:48.738Z,26.88
2023-12-05T06:04:16.410Z,24.85
2023-12-05T06:06:44.040Z,21.25
2023-12-05T06:09:11.581Z,28.15
2023-12-05T06:11:40.601Z,26.85
2023-12-05T06:14:08.294Z,27.38
2023-12-05T06:16:35.921Z,21.35
2023-12-05T06:19:03.635Z,20.77
2023-12-05T06:21:31.258Z,20.35
2023-12-05T06:24:00.183Z,17.73
2023-12-05T06:26:27.936Z,19.17
2023-12-05T06:28:56.871Z,18.52
2023-12-05T06:31:25.096Z,23.90
2023-12-05T06:33:52.934Z,23.00
2023-12-05T06:36:20.665Z,21.52
2023-12-05T06:38:48.270Z,22.95
2023-12-05T06:41:15.887Z,22.88
2023-12-05T06:43:43.457Z,21.70
2023-12-05T06:46:12.268Z,19.15
2023-12-05T06:48:39.969Z,24.77
2023-12-05T06:51:07.879Z,19.08
2023-12-05T06:53:39.820Z,22.92
2023-12-05T06:56:15.095Z,22.20
2023-12-05T06:58:43.204Z,25.92
2023-12-05T07:01:12.697Z,24.23
2023-12-05T07:03:47.336Z,19.00
2023-12-05T07:06:18.695Z,17.42
2023-12-05T07:08:46.314Z,20.92
2023-12-05T07:11:13.822Z,17.52
2023-12-05T07:13:41.420Z,20.90
2023-12-05T07:16:11.280Z,17.98
2023-12-05T07:18:40.383Z,19.10
2023-12-05T07:21:09.451Z,21.55
2023-12-05T07:23:37.067Z,21.85
2023-12-05T07:26:04.920Z,17.63
2023-12-05T07:28:32.533Z,20.35
2023-12-05T07:31:00.172Z,20.33
2023-12-05T07:33:27.924Z,17.73
2023-12-05T07:35:58.763Z,19.13
2023-12-05T07:38:26.362Z,17.58
2023-12-05T07:40:54.207Z,18.58
2023-12-05T07:43:21.748Z,17.55
2023-12-05T07:45:49.450Z,18.90
2023-12-05T07:48:17.163Z,19.15
2023-12-05T07:50:45.074Z,18.52
2023-12-05T07:53:14.090Z,19.95
2023-12-05T07:55:41.676Z,19.88
2023-12-05T07:58:09.214Z,17.45
2023-12-05T08:00:39.884Z,17.85
2023-12-05T08:03:07.537Z,18.33
2023-12-05T08:05:35.453Z,16.42
2023-12-05T08:08:03.018Z,18.02
2023-12-05T08:10:32.108Z,16.77
2023-12-05T08:12:59.744Z,21.77
2023-12-05T08:15:27.410Z,18.63
2023-12-05T08:17:55.042Z,20.05
2023-12-05T08:20:22.985Z,18.70
2023-12-05T08:22:50.782Z,22.23
2023-12-05T08:25:18.550Z,20.40
2023-12-05T08:27:47.506Z,18.25
2023-12-05T08:30:15.715Z,19.48
2023-12-05T08:32:43.954Z,16.88
2023-12-05T08:35:11.741Z,20.85
2023-12-05T08:37:39.477Z,22.77
2023-12-05T08:40:08.478Z,20.77
2023-12-05T08:42:36.320Z,19.23
2023-12-05T08:45:05.965Z,17.08
2023-12-05T08:47:33.518Z,18.15
2023-12-05T08:50:01.058Z,14.85
2023-12-05T08:52:28.583Z,16.05
2023-12-05T08:54:56.232Z,18.45
2023-12-05T08:57:24.095Z,19.35
2023-12-05T08:59:51.625Z,23.17
2023-12-05T09:02:22.212Z,18.08
2023-12-05T09:04:49.933Z,19.15
2023-12-05T09:07:18.598Z,15.35
2023-12-05T09:09:46.356Z,17.35
2023-12-05T09:12:13.990Z,18.23
2023-12-05T09:14:41.744Z,16.10
2023-12-05T09:17:11.164Z,18.02
2023-12-05T09:19:40.247Z,18.83
2023-12-05T09:22:07.805Z,19.00
2023-12-05T09:24:35.493Z,16.63
2023-12-05T09:27:03.777Z,16.85
2023-12-05T09:29:32.183Z,17.17
2023-12-05T09:31:59.723Z,16.48
2023-12-05T09:34:27.334Z,18.17
2023-12-05T09:36:56.282Z,22.92
2023-12-05T09:39:24.686Z,14.52
2023-12-05T09:41:54.232Z,16.15
2023-12-05T09:44:23.315Z,18.23
2023-12-05T09:46:54.877Z,17.95
2023-12-05T09:49:27.954Z,13.95
2023-12-05T09:51:57.129Z,18.60
2023-12-05T09:54:27.050Z,14.35
2023-12-05T09:56:56.514Z,16.15
2023-12-05T09:59:24.282Z,18.90
2023-12-05T10:01:54.861Z,15.43
2023-12-05T10:04:24.281Z,22.10
2023-12-05T10:06:53.447Z,15.63
2023-12-05T10:09:24.269Z,13.65
2023-12-05T10:11:52.612Z,15.60
2023-12-05T10:14:20.317Z,15.48
2023-12-05T10:16:48.763Z,12.98
2023-12-05T10:19:16.686Z,12.48
2023-12-05T10:21:45.405Z,14.82
2023-12-05T10:24:40.084Z,11.75
2023-12-05T10:27:09.036Z,15.95
2023-12-05T10:29:39.259Z,14.32
2023-12-05T10:32:08.539Z,13.07
2023-12-05T10:34:50.154Z,14.18
2023-12-05T10:37:22.332Z,13.20
2023-12-05T10:39:52.119Z,15.20
2023-12-05T10:42:20.192Z,12.32
2023-12-05T10:44:48.532Z,11.32
2023-12-05T10:47:19.288Z,10.02
2023-12-05T10:49:50.145Z,12.17
2023-12-05T10:52:17.988Z,14.50
2023-12-05T10:54:45.896Z,12.52
2023-12-05T10:57:14.831Z,11.15
2023-12-05T10:59:42.488Z,11.43
2023-12-05T11:02:14.300Z,11.23
2023-12-05T11:04:42.804Z,11.57
2023-12-05T11:07:10.582Z,11.80
2023-12-05T11:09:38.165Z,8.25
2023-12-05T11:12:07.990Z,10.57
2023-12-05T11:14:41.689Z,9.18
2023-12-05T11:17:12.691Z,10.90
2023-12-05T11:20:02.205Z,7.78
2023-12-05T11:22:39.553Z,7.75
2023-12-05T11:25:30.828Z,8.25
2023-12-05T11:28:09.395Z,7.53
2023-12-05T11:31:07.602Z,9.95
2023-12-05T11:33:49.901Z,9.70
2023-12-05T11:36:30.653Z,8.18
2023-12-05T11:39:00.505Z,7.85
2023-12-05T11:41:28.862Z,8.20
2023-12-05T11:44:20.075Z,7.75
2023-12-05T11:46:49.636Z,7.95
2023-12-05T11:49:35.767Z,6.35
2023-12-05T11:52:10.336Z,7.35
2023-12-05T11:54:38.169Z,4.47
2023-12-05T11:57:13.808Z,5.32
2023-12-05T11:59:42.232Z,3.05
2023-12-05T12:02:14.237Z,3.40
2023-12-05T12:04:42.097Z,4.57
2023-12-05T12:07:09.763Z,5.80
2023-12-05T12:09:42.072Z,5.47
2023-12-05T12:12:11.160Z,5.03
2023-12-05T12:14:42.054Z,5.05
2023-12-05T12:17:12.771Z,5.47
2023-12-05T12:19:40.659Z,4.93
2023-12-05T12:22:09.675Z,7.20
2023-12-05T12:24:38.552Z,7.18
2023-12-05T12:27:08.211Z,5.03
2023-12-05T12:29:37.135Z,5.43
2023-12-05T12:32:13.584Z,3.70
2023-12-05T12:34:44.647Z,4.65
2023-12-05T12:37:18.176Z,5.70
2023-12-05T12:39:50.691Z,2.65
2023-12-05T12:42:18.976Z,2.65
2023-12-05T12:44:47.343Z,5.15
2023-12-05T12:47:17.088Z,7.32
2023-12-05T12:49:44.818Z,5.45
2023-12-05T12:52:12.681Z,4.07
2023-12-05T12:54:41.409Z,5.95
2023-12-05T12:57:09.096Z,6.60
2023-12-05T12:59:37.810Z,4.38
2023-12-05T13:02:07.843Z,5.43
2023-12-05T13:04:38.484Z,5.03
2023-12-05T13:07:06.548Z,4.65
2023-12-05T13:09:34.590Z,5.43
2023-12-05T13:12:02.477Z,4.47
2023-12-05T13:14:30.041Z,4.18
2023-12-05T13:16:57.588Z,5.57
2023-12-05T13:19:28.131Z,4.18
2023-12-05T13:21:57.368Z,5.18
2023-12-05T13:24:24.928Z,4.78
2023-12-05T13:26:52.924Z,4.38
2023-12-05T13:29:21.206Z,7.40
2023-12-05T13:31:48.813Z,3.97
2023-12-05T13:34:16.586Z,3.63
2023-12-05T13:36:44.586Z,4.50
2023-12-05T13:39:16.313Z,3.33
2023-12-05T13:41:44.408Z,3.22
2023-12-05T13:44:11.907Z,4.57
2023-12-05T13:46:40.275Z,4.05
2023-12-05T13:49:08.222Z,3.35
2023-12-05T13:51:36.520Z,4.07
2023-12-05T13:54:05.080Z,3.75
2023-12-05T13:56:34.369Z,3.60
2023-12-05T13:59:02.022Z,3.90
2023-12-05T14:01:29.685Z,2.85
2023-12-05T14:03:58.363Z,3.42
2023-12-05T14:06:26.168Z,3.72
2023-12-05T14:08:53.765Z,3.60
2023-12-05T14:11:21.257Z,2.35
2023-12-05T14:13:50.150Z,4.20
2023-12-05T14:16:17.778Z,3.88
2023-12-05T14:18:45.336Z,2.88
2023-12-05T14:21:12.906Z,3.10
2023-12-05T14:23:40.681Z,4.60
2023-12-05T14:26:08.449Z,5.18
2023-12-05T14:28:35.020Z,2.85
2023-12-05T14:31:03.979Z,4.20
2023-12-05T14:33:31.673Z,2.38
2023-12-05T14:35:59.285Z,2.22
2023-12-05T14:38:26.943Z,2.90
2023-12-05T14:40:54.459Z,2.60
2023-12-05T14:43:21.968Z,2.92
2023-12-05T14:45:49.525Z,3.10
2023-12-05T14:48:18.476Z,2.97
2023-12-05T14:50:46.084Z,3.60
2023-12-05T14:53:13.759Z,3.50
2023-12-05T14:55:41.334Z,2.67
2023-12-05T14:58:09.347Z,2.88
2023-12-05T15:00:37.424Z,3.40
2023-12-05T15:03:05.456Z,3.75
2023-12-05T15:05:34.383Z,3.90
2023-12-05T15:08:03.089Z,3.50
2023-12-05T15:10:31.752Z,2.75
2023-12-05T15:12:59.324Z,3.75
2023-12-05T15:15:27.335Z,4.95
2023-12-05T15:17:55.028Z,3.63
2023-12-05T15:20:24.249Z,6.18
2023-12-05T15:22:54.210Z,4.60
2023-12-05T15:25:21.983Z,4.45
2023-12-05T15:27:49.625Z,4.50
2023-12-05T15:30:17.348Z,4.38
2023-12-05T15:32:51.367Z,4.40
2023-12-05T15:35:19.803Z,2.92
2023-12-05T15:37:47.390Z,3.35
2023-12-05T15:40:17.257Z,4.90
2023-12-05T15:42:46.094Z,5.00
2023-12-05T15:45:14.351Z,5.53
2023-12-05T15:47:44.057Z,4.82
2023-12-05T15:50:12.149Z,5.43
2023-12-05T15:52:40.082Z,3.58
2023-12-05T15:55:08.279Z,3.90
2023-12-05T15:57:37.607Z,3.00
2023-12-05T16:00:06.260Z,3.53
2023-12-05T16:02:33.915Z,5.50
2023-12-05T16:05:01.601Z,2.83
2023-12-05T16:07:29.420Z,2.42
2023-12-05T16:09:57.127Z,4.00
2023-12-05T16:12:24.754Z,4.07
2023-12-05T16:14:53.950Z,3.85
2023-12-05T16:17:21.674Z,2.92
2023-12-05T16:19:49.572Z,3.20
2023-12-05T16:22:17.185Z,5.90
2023-12-05T16:24:44.758Z,3.58
2023-12-05T16:27:12.355Z,2.83
2023-12-05T16:29:39.898Z,2.58
2023-12-05T16:32:09.315Z,3.65
2023-12-05T16:34:36.968Z,6.53
2023-12-05T16:37:04.887Z,4.80
2023-12-05T16:39:32.575Z,5.45
2023-12-05T16:42:00.210Z,5.40
2023-12-05T16:44:27.804Z,5.45
2023-12-05T16:46:55.362Z,3.85
2023-12-05T16:49:24.984Z,3.38
2023-12-05T16:51:53.247Z,3.88
2023-12-05T16:54:20.833Z,4.05
2023-12-05T16:56:48.693Z,4.07
2023-12-05T16:59:25.037Z,4.45
2023-12-05T17:01:56.291Z,3.50
2023-12-05T17:04:25.310Z,3.50
2023-12-05T17:06:55.638Z,3.67
2023-12-05T17:09:23.409Z,4.40
2023-12-05T17:11:50.936Z,4.03
2023-12-05T17:14:18.444Z,3.35
2023-12-05T17:16:45.959Z,4.13
2023-12-05T17:19:13.597Z,4.13
2023-12-05T17:21:42.532Z,6.35
2023-12-05T17:24:10.133Z,3.67
2023-12-05T17:26:37.648Z,4.57
2023-12-05T17:29:05.552Z,4.43
2023-12-05T17:31:33.145Z,5.38
2023-12-05T17:34:01.150Z,6.63
2023-12-05T17:36:28.859Z,6.63
2023-12-05T17:38:57.781Z,6.57
2023-12-05T17:41:25.334Z,6.60
2023-12-05T17:43:52.853Z,5.85
2023-12-05T17:46:20.429Z,4.88
2023-12-05T17:48:48.123Z,3.92
2023-12-05T17:51:15.769Z,4.60
2023-12-05T17:53:43.355Z,4.28
2023-12-05T17:56:12.673Z,6.93
2023-12-05T17:58:40.318Z,9.73
2023-12-05T18:01:09.036Z,9.13
2023-12-05T18:03:36.771Z,9.55
2023-12-05T18:06:04.738Z,6.28
2023-12-05T18:08:32.372Z,7.63
2023-12-05T18:11:00.264Z,9.38
2023-12-05T18:13:29.186Z,6.88
2023-12-05T18:15:56.775Z,7.03
2023-12-05T18:18:24.650Z,10.02
2023-12-05T18:20:52.321Z,7.95
2023-12-05T18:23:19.887Z,10.95
2023-12-05T18:25:47.436Z,10.32
2023-12-05T18:28:16.314Z,9.20
2023-12-05T18:30:45.305Z,6.78
2023-12-05T18:33:13.123Z,7.78
2023-12-05T18:35:40.731Z,10.50
2023-12-05T18:38:09.122Z,14.77
2023-12-05T18:40:36.643Z,11.15
2023-12-05T18:43:04.414Z,10.38
2023-12-05T18:45:32.923Z,8.98
2023-12-05T18:48:01.933Z,11.25
2023-12-05T18:50:29.580Z,11.55
2023-12-05T18:52:58.276Z,10.63
2023-12-05T18:55:26.135Z,11.65
2023-12-05T18:57:54.948Z,12.77
2023-12-05T19:00:22.554Z,13.77
2023-12-05T19:02:51.273Z,10.27
2023-12-05T19:05:20.298Z,10.25
2023-12-05T19:07:48.779Z,8.65
2023-12-05T19:10:16.472Z,10.52
2023-12-05T19:12:46.096Z,8.77
2023-12-05T19:15:13.811Z,9.48
2023-12-05T19:17:41.533Z,9.35
2023-12-05T19:20:10.240Z,7.40
2023-12-05T19:22:38.155Z,6.40
2023-12-05T19:25:07.221Z,12.48
2023-12-05T19:27:35.675Z,20.67
2023-12-05T19:30:05.022Z,9.52
2023-12-05T19:32:32.663Z,10.50
2023-12-05T19:35:00.384Z,7.78
2023-12-05T19:37:28.055Z,12.00
2023-12-05T19:39:56.963Z,10.00
2023-12-05T19:42:24.583Z,7.47
2023-12-05T19:44:52.160Z,9.18
2023-12-05T19:47:23.800Z,7.28
2023-12-05T19:49:51.956Z,8.45
2023-12-05T19:52:19.753Z,11.02
2023-12-05T19:54:47.343Z,9.40
2023-12-05T19:57:16.417Z,10.80
2023-12-05T19:59:45.704Z,11.30
2023-12-05T20:02:13.371Z,10.85
2023-12-05T20:04:41.300Z,13.50
2023-12-05T20:07:09.312Z,23.38
2023-12-05T20:09:38.105Z,13.10
2023-12-05T20:12:06.510Z,10.45
2023-12-05T20:14:35.455Z,10.98
2023-12-05T20:17:04.335Z,10.18
2023-12-05T20:19:32.362Z,9.68
2023-12-05T20:22:00.221Z,16.15
2023-12-05T20:24:27.914Z,8.82
2023-12-05T20:26:55.454Z,9.75
2023-12-05T20:29:24.472Z,10.63
2023-12-05T20:31:53.380Z,8.15
2023-12-05T20:34:21.008Z,8.02
2023-12-05T20:36:48.654Z,11.57
2023-12-05T20:39:16.235Z,8.43
2023-12-05T20:41:43.870Z,9.38
2023-12-05T20:44:11.685Z,6.82
2023-12-05T20:46:39.252Z,7.20
2023-12-05T20:49:08.286Z,9.45
2023-12-05T20:51:35.886Z,10.50
2023-12-05T20:54:03.421Z,11.73
2023-12-05T20:56:30.993Z,14.07
2023-12-05T20:58:58.806Z,10.02
2023-12-05T21:01:26.399Z,17.63
2023-12-05T21:03:54.368Z,19.88
2023-12-05T21:06:23.548Z,19.25
2023-12-05T21:09:10.776Z,18.13
2023-12-05T21:11:38.578Z,20.90
2023-12-05T21:14:06.912Z,16.88
2023-12-05T21:16:35.363Z,15.75
2023-12-05T21:19:03.025Z,10.20
2023-12-05T21:21:32.030Z,7.75
2023-12-05T21:23:59.684Z,9.95
2023-12-05T21:26:27.228Z,7.07
2023-12-05T21:28:54.835Z,10.95
2023-12-05T21:31:22.374Z,7.20
2023-12-05T21:33:50.043Z,6.57
2023-12-05T21:36:24.899Z,6.25
2023-12-05T21:38:58.363Z,5.72
2023-12-05T21:41:27.082Z,5.55
2023-12-05T21:43:54.632Z,5.65
2023-12-05T21:46:23.842Z,6.50
2023-12-05T21:48:51.823Z,7.47
2023-12-05T21:51:19.522Z,10.18
2023-12-05T21:53:47.091Z,7.55
2023-12-05T21:56:16.035Z,6.93
2023-12-05T21:58:43.573Z,5.95
2023-12-05T22:01:12.596Z,6.68
2023-12-05T22:03:40.602Z,5.75
2023-12-05T22:06:09.266Z,4.43
2023-12-05T22:08:37.198Z,3.42
2023-12-05T22:11:07.075Z,3.22
2023-12-05T22:13:35.942Z,3.60
2023-12-05T22:16:05.152Z,2.30
2023-12-05T22:18:33.070Z,1.90
2023-12-05T22:21:02.410Z,2.72
2023-12-05T22:23:33.569Z,3.78
2023-12-05T22:26:03.153Z,1.55
2023-12-05T22:28:32.608Z,2.15
2023-12-05T22:31:01.706Z,1.88
2023-12-05T22:33:29.661Z,1.13
2023-12-05T22:35:58.154Z,2.00
2023-12-05T22:38:25.854Z,2.10
2023-12-05T22:40:53.508Z,2.30
2023-12-05T22:43:21.134Z,2.50
2023-12-05T22:45:48.740Z,3.30
2023-12-05T22:48:17.795Z,2.30
2023-12-05T22:50:45.532Z,2.97
2023-12-05T22:53:13.103Z,0.88
2023-12-05T22:55:40.866Z,3.55
2023-12-05T22:58:08.487Z,1.40
2023-12-05T23:00:36.190Z,1.35
2023-12-05T23:03:03.877Z,1.00
2023-12-05T23:05:32.855Z,1.30
2023-12-05T23:08:00.485Z,1.25
2023-12-05T23:10:28.190Z,1.63
2023-12-05T23:12:55.826Z,0.82
2023-12-05T23:15:23.457Z,1.92
2023-12-05T23:17:51.066Z,2.10
2023-12-05T23:20:18.801Z,0.98
2023-12-05T23:22:47.706Z,1.10
2023-12-05T23:25:15.666Z,3.83
2023-12-05T23:27:43.330Z,2.95
2023-12-05T23:30:12.791Z,2.20
2023-12-05T23:32:40.418Z,1.95
2023-12-05T23:35:08.616Z,1.08
2023-12-05T23:37:36.197Z,0.68
2023-12-05T23:40:06.224Z,1.42
2023-12-05T23:42:33.902Z,0.73
2023-12-05T23:45:01.585Z,2.20
2023-12-05T23:47:29.572Z,1.77
2023-12-05T23:49:57.741Z,4.40
2023-12-05T23:52:25.281Z,6.88
2023-12-05T23:54:52.931Z,3.20
2023-12-05T23:57:22.073Z,2.13
2023-12-05T23:59:49.832Z,2.22
